Time;durP1;ratioP1;P1;durP2;ratioP2;P2;SDS_P1;SDS_P2;PMS_P1;PMS_P2;Temp;Humidity;BMP_temperature;BMP_pressure;BME280_temperature;BME280_humidity;BME280_pressure;Samples;Min_cycle;Max_cycle;Signal;HPM_P1;HPM_P2
2023/09/08 00:01:00;;;;;;;12.20;8.63;;;25.60;1.00;;;;;;5013981;28;20272;-79
2023/09/08 00:03:26;;;;;;;14.17;8.73;;;25.50;1.00;;;;;;5016339;28;20173;-82
2023/09/08 00:05:52;;;;;;;11.27;8.63;;;25.70;1.00;;;;;;5014746;28;20209;-82
2023/09/08 00:08:18;;;;;;;10.10;9.10;;;25.70;1.00;;;;;;5015170;28;20181;-82
2023/09/08 00:10:43;;;;;;;11.40;8.53;;;25.70;1.00;;;;;;5016009;28;20215;-83
2023/09/08 00:13:09;;;;;;;11.70;8.83;;;25.80;1.00;;;;;;5021041;28;20197;-82
2023/09/08 00:15:35;;;;;;;13.03;8.67;;;25.70;1.00;;;;;;5021266;28;20175;-82
2023/09/08 00:18:01;;;;;;;12.50;8.73;;;25.70;1.00;;;;;;5018450;28;20581;-79
2023/09/08 00:20:27;;;;;;;14.60;8.70;;;25.70;1.00;;;;;;5016490;28;20634;-79
2023/09/08 00:22:52;;;;;;;12.37;8.40;;;25.60;1.00;;;;;;5016016;28;20260;-78
2023/09/08 00:25:20;;;;;;;11.27;8.20;;;25.60;1.00;;;;;;5016353;28;20198;-80
2023/09/08 00:27:46;;;;;;;13.17;7.83;;;25.60;1.00;;;;;;5016605;28;20204;-80
2023/09/08 00:30:12;;;;;;;11.87;7.87;;;25.70;1.00;;;;;;5016783;28;20627;-81
2023/09/08 00:32:38;;;;;;;12.00;8.10;;;25.60;1.00;;;;;;5017446;28;20174;-81
2023/09/08 00:35:07;;;;;;;10.77;8.77;;;25.50;1.00;;;;;;5018553;28;20701;-84
2023/09/08 00:37:32;;;;;;;9.20;7.37;;;25.40;1.00;;;;;;5018623;28;20269;-81
2023/09/08 00:39:58;;;;;;;10.37;7.60;;;25.40;1.00;;;;;;5020804;28;20198;-81
2023/09/08 00:42:25;;;;;;;14.30;7.63;;;25.40;1.00;;;;;;5019475;28;20175;-83
2023/09/08 00:44:51;;;;;;;10.87;7.53;;;25.40;1.00;;;;;;5019097;28;20220;-81
2023/09/08 00:47:19;;;;;;;11.83;7.53;;;25.30;1.00;;;;;;5016343;28;20170;-81
2023/09/08 00:49:46;;;;;;;11.43;7.23;;;25.30;1.00;;;;;;5015976;28;20178;-79
2023/09/08 00:52:12;;;;;;;8.30;7.40;;;25.20;1.00;;;;;;5016629;28;20171;-79
2023/09/08 00:54:38;;;;;;;11.63;7.27;;;25.30;1.00;;;;;;5015057;28;20174;-79
2023/09/08 00:57:04;;;;;;;8.43;6.70;;;25.30;1.00;;;;;;5015853;28;20681;-81
2023/09/08 00:59:32;;;;;;;10.07;6.73;;;25.20;1.00;;;;;;5018210;28;20253;-79
2023/09/08 01:01:58;;;;;;;13.67;7.27;;;25.20;1.00;;;;;;5036958;28;20175;-79
2023/09/08 01:04:24;;;;;;;10.03;6.73;;;25.30;1.00;;;;;;5037412;28;20178;-80
2023/09/08 01:06:50;;;;;;;8.27;6.50;;;25.20;1.00;;;;;;5037758;28;20435;-79
2023/09/08 01:09:17;;;;;;;7.97;6.63;;;25.00;1.00;;;;;;5032177;28;20178;-82
2023/09/08 01:11:47;;;;;;;8.17;6.73;;;24.70;1.00;;;;;;5013149;28;20210;-81
2023/09/08 01:14:13;;;;;;;8.23;7.27;;;24.70;1.00;;;;;;5029577;28;20163;-83
2023/09/08 01:16:42;;;;;;;10.80;7.57;;;24.70;1.00;;;;;;5021821;28;20159;-83
2023/09/08 01:19:12;;;;;;;10.27;7.33;;;24.70;1.00;;;;;;5019167;28;20175;-82
2023/09/08 01:21:53;;;;;;;10.50;6.80;;;24.60;1.00;;;;;;5028851;28;20186;-80
2023/09/08 01:25:09;;;;;;;9.97;7.33;;;24.70;1.00;;;;;;5035558;28;20177;-81
2023/09/08 01:27:37;;;;;;;8.60;6.93;;;24.80;1.00;;;;;;5002022;28;20198;-82
2023/09/08 01:30:05;;;;;;;10.37;7.87;;;24.80;1.00;;;;;;5032960;28;20250;-82
2023/09/08 01:32:32;;;;;;;9.07;7.30;;;24.70;1.00;;;;;;5020252;28;20174;-82
2023/09/08 01:34:59;;;;;;;10.60;6.57;;;24.60;1.00;;;;;;5020161;28;20162;-81
2023/09/08 01:37:25;;;;;;;8.20;7.30;;;24.70;1.00;;;;;;5027046;28;20173;-81
2023/09/08 01:39:51;;;;;;;8.47;6.67;;;24.70;1.00;;;;;;5020521;28;20163;-83
2023/09/08 01:42:17;;;;;;;9.57;7.60;;;24.70;1.00;;;;;;5022854;28;20248;-81
2023/09/08 01:44:43;;;;;;;8.80;7.67;;;24.70;1.00;;;;;;5020070;28;20208;-83
2023/09/08 01:47:08;;;;;;;8.37;6.60;;;24.70;1.00;;;;;;5016292;28;20240;-81
2023/09/08 01:49:34;;;;;;;12.60;8.73;;;24.70;1.00;;;;;;5016259;28;20359;-82
2023/09/08 01:51:59;;;;;;;11.53;8.40;;;24.80;1.00;;;;;;5016902;28;20170;-83
2023/09/08 01:54:25;;;;;;;12.83;10.00;;;24.80;1.00;;;;;;5018750;28;20529;-82
2023/09/08 01:56:51;;;;;;;10.57;7.50;;;24.70;1.00;;;;;;5017842;28;20532;-81
2023/09/08 01:59:17;;;;;;;8.23;6.63;;;24.70;1.00;;;;;;5017836;28;20177;-81
2023/09/08 02:01:43;;;;;;;7.23;6.50;;;24.60;1.00;;;;;;5017194;28;20174;-83
2023/09/08 02:04:09;;;;;;;9.20;7.23;;;24.60;1.00;;;;;;5016804;28;20170;-81
2023/09/08 02:06:34;;;;;;;9.40;7.83;;;24.60;1.00;;;;;;5018506;28;20221;-82
2023/09/08 02:09:01;;;;;;;9.60;7.57;;;24.60;1.00;;;;;;5024323;28;20665;-78
2023/09/08 02:11:27;;;;;;;8.23;7.33;;;24.70;1.00;;;;;;5030411;28;20177;-80
2023/09/08 02:13:53;;;;;;;8.73;7.10;;;24.70;1.00;;;;;;5031299;28;20190;-78
2023/09/08 02:16:19;;;;;;;7.77;6.90;;;24.70;1.00;;;;;;5029852;28;20237;-78
2023/09/08 02:18:45;;;;;;;10.03;7.57;;;24.60;1.00;;;;;;5030853;28;20186;-79
2023/09/08 02:21:11;;;;;;;10.07;6.97;;;24.70;1.00;;;;;;5031679;28;20176;-81
2023/09/08 02:23:37;;;;;;;9.47;7.50;;;24.70;1.00;;;;;;5029196;28;20224;-80
2023/09/08 02:26:03;;;;;;;11.87;7.80;;;24.70;1.00;;;;;;5024407;28;20217;-81
2023/09/08 02:28:29;;;;;;;9.70;7.50;;;24.70;1.00;;;;;;5017178;28;20174;-82
2023/09/08 02:30:55;;;;;;;11.27;8.07;;;24.80;1.00;;;;;;5016446;28;20169;-81
2023/09/08 02:33:21;;;;;;;11.43;7.60;;;24.60;1.00;;;;;;5016017;28;20170;-79
2023/09/08 02:35:46;;;;;;;10.73;7.77;;;24.60;1.00;;;;;;5016146;28;20186;-80
2023/09/08 02:38:12;;;;;;;10.93;7.67;;;24.50;1.00;;;;;;5016001;28;20200;-81
2023/09/08 02:40:38;;;;;;;10.80;7.30;;;24.50;1.00;;;;;;5015530;28;20233;-81
2023/09/08 02:43:04;;;;;;;11.97;7.87;;;24.60;1.00;;;;;;5016446;28;20661;-82
2023/09/08 02:45:30;;;;;;;12.87;8.30;;;24.60;1.00;;;;;;5017876;28;20205;-80
2023/09/08 02:47:55;;;;;;;14.33;8.50;;;24.60;1.00;;;;;;5015449;28;20326;-81
2023/09/08 02:50:22;;;;;;;8.90;7.93;;;24.50;1.00;;;;;;5016335;28;20186;-81
2023/09/08 02:52:47;;;;;;;12.60;8.03;;;24.50;1.00;;;;;;5014989;28;20634;-83
2023/09/08 02:55:13;;;;;;;14.30;8.90;;;24.40;1.00;;;;;;5016314;28;20213;-80
2023/09/08 02:57:40;;;;;;;10.20;7.90;;;24.30;1.00;;;;;;5017152;28;20824;-82
2023/09/08 03:00:07;;;;;;;10.73;7.97;;;24.20;1.00;;;;;;5017437;28;20283;-82
2023/09/08 03:02:33;;;;;;;11.97;8.00;;;24.20;1.00;;;;;;5015011;28;20170;-83
2023/09/08 03:05:00;;;;;;;12.93;8.03;;;24.20;1.00;;;;;;5017157;28;20537;-84
2023/09/08 03:07:26;;;;;;;12.40;7.83;;;24.20;1.00;;;;;;5016808;28;20174;-80
2023/09/08 03:09:51;;;;;;;12.43;7.83;;;24.30;1.00;;;;;;5015127;28;20644;-82
2023/09/08 03:12:17;;;;;;;13.63;8.73;;;24.20;1.00;;;;;;5015815;28;20282;-83
2023/09/08 03:14:43;;;;;;;13.10;8.23;;;24.30;1.00;;;;;;5016529;28;20186;-83
2023/09/08 03:17:09;;;;;;;10.80;8.40;;;24.20;1.00;;;;;;5015317;28;20184;-83
2023/09/08 03:19:34;;;;;;;10.53;7.57;;;24.30;1.00;;;;;;5016582;28;20182;-83
2023/09/08 03:22:00;;;;;;;11.33;8.50;;;24.30;1.00;;;;;;5016510;28;20577;-82
2023/09/08 03:24:26;;;;;;;10.63;7.97;;;24.30;1.00;;;;;;5016323;28;20170;-83
2023/09/08 03:26:51;;;;;;;9.67;8.30;;;24.30;1.00;;;;;;5016357;28;20212;-81
2023/09/08 03:29:17;;;;;;;12.73;8.27;;;24.20;1.00;;;;;;5016666;28;20269;-82
2023/09/08 03:31:43;;;;;;;10.03;8.27;;;24.00;1.00;;;;;;5017441;28;20182;-84
2023/09/08 03:34:09;;;;;;;11.50;8.20;;;24.00;1.00;;;;;;5017816;28;20250;-81
2023/09/08 03:36:35;;;;;;;12.37;7.43;;;24.10;1.00;;;;;;5020495;28;20166;-83
2023/09/08 03:39:02;;;;;;;11.80;8.07;;;24.10;1.00;;;;;;4998675;28;20198;-83
2023/09/08 03:41:28;;;;;;;14.13;7.83;;;24.00;1.00;;;;;;5021876;28;20166;-83
2023/09/08 03:43:54;;;;;;;11.23;7.63;;;24.00;1.00;;;;;;5019151;28;20256;-81
2023/09/08 03:46:19;;;;;;;15.10;7.83;;;23.90;1.00;;;;;;5022932;28;20197;-80
2023/09/08 03:48:45;;;;;;;13.40;8.60;;;23.90;1.00;;;;;;5023245;28;20228;-84
2023/09/08 03:51:11;;;;;;;11.53;8.53;;;23.80;1.00;;;;;;5020418;28;20209;-78
2023/09/08 03:53:36;;;;;;;11.63;8.87;;;23.80;1.00;;;;;;5022784;28;20166;-81
2023/09/08 03:56:02;;;;;;;10.43;7.90;;;23.80;1.00;;;;;;5021730;28;20194;-81
2023/09/08 03:58:29;;;;;;;10.27;8.87;;;23.70;1.00;;;;;;5020118;28;20213;-83
2023/09/08 04:00:55;;;;;;;12.63;7.93;;;23.70;1.00;;;;;;5021583;28;20193;-81
2023/09/08 04:03:20;;;;;;;9.70;8.07;;;23.70;1.00;;;;;;5022764;28;20166;-81
2023/09/08 04:05:46;;;;;;;13.00;7.80;;;23.80;1.00;;;;;;5029856;28;20265;-79
2023/09/08 04:08:11;;;;;;;11.50;8.10;;;23.80;1.00;;;;;;5034597;28;20181;-77
2023/09/08 04:10:37;;;;;;;9.73;8.17;;;23.80;1.00;;;;;;5035209;28;20182;-78
2023/09/08 04:13:04;;;;;;;11.60;8.93;;;23.80;1.00;;;;;;5030353;28;20257;-77
2023/09/08 04:15:29;;;;;;;11.47;8.13;;;23.70;1.00;;;;;;5033359;28;20208;-78
2023/09/08 04:17:57;;;;;;;9.83;8.23;;;23.70;1.00;;;;;;5027780;28;20174;-77
2023/09/08 04:20:23;;;;;;;10.50;8.13;;;23.70;1.00;;;;;;5031933;28;20178;-80
2023/09/08 04:22:48;;;;;;;8.90;8.07;;;23.70;1.00;;;;;;5035366;28;20205;-77
2023/09/08 04:25:14;;;;;;;12.03;8.50;;;23.60;1.00;;;;;;5036114;28;20197;-78
2023/09/08 04:27:40;;;;;;;11.93;8.43;;;23.70;1.00;;;;;;5027266;28;20200;-82
2023/09/08 04:30:07;;;;;;;10.33;8.00;;;23.60;1.00;;;;;;5022824;28;20178;-83
2023/09/08 04:32:34;;;;;;;10.47;8.43;;;23.60;1.00;;;;;;5023308;28;20174;-79
2023/09/08 04:35:00;;;;;;;9.73;8.00;;;23.60;1.00;;;;;;5027402;28;20170;-81
2023/09/08 04:37:25;;;;;;;12.60;8.47;;;23.50;1.00;;;;;;5028704;28;20236;-83
2023/09/08 04:39:51;;;;;;;12.00;8.53;;;23.60;1.00;;;;;;5022659;28;20193;-82
2023/09/08 04:42:17;;;;;;;11.83;7.90;;;23.50;1.00;;;;;;5027056;28;20568;-82
2023/09/08 04:44:42;;;;;;;12.57;8.73;;;23.40;1.00;;;;;;5020988;28;20221;-78
2023/09/08 04:47:08;;;;;;;10.67;7.97;;;23.30;1.00;;;;;;5029561;28;20193;-78
2023/09/08 04:49:34;;;;;;;9.90;7.87;;;23.40;1.00;;;;;;5027173;28;20266;-80
2023/09/08 04:51:59;;;;;;;11.70;8.30;;;23.40;1.00;;;;;;5026494;28;20190;-79
2023/09/08 04:54:27;;;;;;;10.37;8.10;;;23.40;1.00;;;;;;5030645;28;20171;-81
2023/09/08 04:56:54;;;;;;;12.80;8.53;;;23.40;1.00;;;;;;5030489;28;20220;-79
2023/09/08 04:59:20;;;;;;;13.47;8.73;;;23.50;1.00;;;;;;5036777;28;20237;-80
2023/09/08 05:01:47;;;;;;;11.67;8.83;;;23.60;1.00;;;;;;5035931;28;20209;-77
2023/09/08 05:04:12;;;;;;;10.93;9.00;;;23.50;1.00;;;;;;5036743;28;20174;-79
2023/09/08 05:06:40;;;;;;;14.97;9.10;;;23.30;1.00;;;;;;5034976;28;20210;-78
2023/09/08 05:09:06;;;;;;;11.57;8.17;;;23.30;1.00;;;;;;5024581;28;20170;-81
2023/09/08 05:11:33;;;;;;;11.03;8.83;;;23.30;1.00;;;;;;5022473;28;20167;-79
2023/09/08 05:14:00;;;;;;;17.40;9.17;;;23.30;1.00;;;;;;5017243;28;20638;-78
2023/09/08 05:16:36;;;;;;;11.63;9.53;;;23.30;1.00;;;;;;5016183;28;20372;-80
2023/09/08 05:19:03;;;;;;;16.30;9.10;;;23.30;1.00;;;;;;5015692;28;20194;-79
2023/09/08 05:21:31;;;;;;;14.20;8.70;;;23.20;1.00;;;;;;5014815;28;20241;-80
2023/09/08 05:23:56;;;;;;;11.23;8.37;;;23.10;1.00;;;;;;5018118;28;20253;-80
2023/09/08 05:26:22;;;;;;;12.20;9.07;;;23.10;1.00;;;;;;5017257;28;20225;-79
2023/09/08 05:28:48;;;;;;;15.87;8.80;;;23.10;1.00;;;;;;5016432;28;20180;-81
2023/09/08 05:31:13;;;;;;;11.73;8.67;;;23.00;1.00;;;;;;5016402;28;20185;-80
2023/09/08 05:33:39;;;;;;;17.10;9.40;;;22.90;1.00;;;;;;5016017;28;20175;-81
2023/09/08 05:36:06;;;;;;;11.63;8.53;;;22.80;1.00;;;;;;5017857;28;20162;-81
2023/09/08 05:38:33;;;;;;;14.73;9.03;;;22.90;1.00;;;;;;5018495;28;20170;-80
2023/09/08 05:41:08;;;;;;;13.07;8.10;;;22.90;1.00;;;;;;5018142;28;20242;-74
2023/09/08 05:43:35;;;;;;;16.50;8.37;;;23.20;1.00;;;;;;5021115;28;20165;-76
2023/09/08 05:46:00;;;;;;;17.63;9.00;;;23.30;1.00;;;;;;5018951;28;20531;-75
2023/09/08 05:48:26;;;;;;;16.17;8.87;;;23.40;1.00;;;;;;5017612;28;20166;-75
2023/09/08 05:50:52;;;;;;;11.27;8.70;;;23.60;1.00;;;;;;5016722;28;20548;-75
2023/09/08 05:53:17;;;;;;;12.93;8.23;;;23.70;1.00;;;;;;5016932;28;20170;-77
2023/09/08 05:55:45;;;;;;;19.27;9.37;;;23.80;1.00;;;;;;5017502;28;20190;-76
2023/09/08 05:58:13;;;;;;;14.97;8.77;;;23.80;1.00;;;;;;5017748;28;20166;-77
2023/09/08 06:00:39;;;;;;;11.03;8.50;;;23.90;1.00;;;;;;5017284;28;20212;-80
2023/09/08 06:03:05;;;;;;;17.30;9.50;;;24.00;1.00;;;;;;5017471;28;20595;-76
2023/09/08 06:05:31;;;;;;;21.37;9.47;;;24.10;1.00;;;;;;5018050;28;20238;-73
2023/09/08 06:07:57;;;;;;;13.23;8.70;;;24.10;1.00;;;;;;5028819;28;20159;-78
2023/09/08 06:10:23;;;;;;;14.70;8.97;;;24.10;1.00;;;;;;5034040;28;20185;-82
2023/09/08 06:12:50;;;;;;;15.07;9.47;;;24.00;1.00;;;;;;5034149;28;20206;-80
2023/09/08 06:15:17;;;;;;;16.50;10.07;;;23.90;1.00;;;;;;5035688;28;20661;-79
2023/09/08 06:17:42;;;;;;;15.20;9.33;;;23.90;1.00;;;;;;5033621;28;20177;-78
2023/09/08 06:20:09;;;;;;;13.00;9.07;;;23.80;1.00;;;;;;5030148;28;20588;-80
2023/09/08 06:22:34;;;;;;;11.20;9.30;;;23.80;1.00;;;;;;5033152;28;20174;-79
2023/09/08 06:25:00;;;;;;;15.80;8.70;;;23.70;1.00;;;;;;5034763;28;20189;-81
2023/09/08 06:27:27;;;;;;;15.57;9.40;;;23.80;1.00;;;;;;5032162;28;20681;-81
2023/09/08 06:29:53;;;;;;;14.77;9.47;;;23.70;1.00;;;;;;5032480;28;20181;-80
2023/09/08 06:32:18;;;;;;;13.43;9.60;;;23.80;1.00;;;;;;5036089;28;20178;-79
2023/09/08 06:34:44;;;;;;;16.73;8.63;;;23.90;1.00;;;;;;5035289;28;20193;-81
2023/09/08 06:37:11;;;;;;;16.53;9.30;;;24.00;1.00;;;;;;5035474;28;20190;-81
2023/09/08 06:39:36;;;;;;;14.97;8.93;;;23.90;1.00;;;;;;5035938;28;20182;-78
2023/09/08 06:42:02;;;;;;;11.60;9.20;;;24.00;1.00;;;;;;5034744;28;20193;-78
2023/09/08 06:44:28;;;;;;;16.63;9.23;;;24.00;1.00;;;;;;5036227;28;20170;-80
2023/09/08 06:46:54;;;;;;;16.70;10.20;;;24.00;1.00;;;;;;5035592;28;20229;-80
2023/09/08 06:49:19;;;;;;;15.67;9.70;;;24.00;1.00;;;;;;5035361;28;20174;-79
2023/09/08 06:51:48;;;;;;;14.37;9.47;;;24.10;1.00;;;;;;5034133;28;20177;-78
2023/09/08 06:54:14;;;;;;;14.33;10.37;;;24.20;1.00;;;;;;5036153;28;20219;-80
2023/09/08 06:56:40;;;;;;;14.37;9.57;;;24.30;1.00;;;;;;5035384;28;20190;-80
2023/09/08 06:59:05;;;;;;;14.63;9.50;;;24.30;1.00;;;;;;5035506;28;20165;-78
2023/09/08 07:01:31;;;;;;;13.90;9.27;;;24.40;1.00;;;;;;5034728;28;20185;-79
2023/09/08 07:03:57;;;;;;;15.90;10.03;;;24.40;1.00;;;;;;5033397;28;20178;-81
2023/09/08 07:06:22;;;;;;;14.87;8.90;;;24.40;1.00;;;;;;5031740;28;20206;-79
2023/09/08 07:08:52;;;;;;;15.90;10.00;;;24.40;1.00;;;;;;5031911;28;20178;-80
2023/09/08 07:11:17;;;;;;;13.53;9.70;;;24.40;1.00;;;;;;5031175;28;20174;-78
2023/09/08 07:13:43;;;;;;;18.30;9.93;;;24.40;1.00;;;;;;5027003;28;20238;-82
2023/09/08 07:16:10;;;;;;;14.00;8.90;;;24.40;1.00;;;;;;5019187;28;20235;-81
2023/09/08 07:18:37;;;;;;;11.43;9.23;;;24.50;1.00;;;;;;5022245;28;20213;-81
2023/09/08 07:21:04;;;;;;;12.70;8.33;;;24.50;1.00;;;;;;5023723;28;20238;-80
2023/09/08 07:23:29;;;;;;;11.93;8.37;;;24.40;1.00;;;;;;5025396;28;20162;-79
2023/09/08 07:25:55;;;;;;;16.20;8.07;;;24.40;1.00;;;;;;5020155;28;20296;-79
2023/09/08 07:28:21;;;;;;;12.90;7.77;;;24.40;1.00;;;;;;5022161;28;20209;-81
2023/09/08 07:30:47;;;;;;;15.20;8.67;;;24.40;1.00;;;;;;5021114;28;20166;-80
2023/09/08 07:33:13;;;;;;;13.40;8.20;;;24.50;1.00;;;;;;5016925;28;20188;-79
2023/09/08 07:35:39;;;;;;;13.93;8.20;;;24.50;1.00;;;;;;5016050;28;20174;-80
2023/09/08 07:38:06;;;;;;;16.23;7.60;;;24.50;1.00;;;;;;5018448;28;20179;-82
2023/09/08 07:40:33;;;;;;;12.20;8.50;;;24.60;1.00;;;;;;5026615;28;20326;-81
2023/09/08 07:42:59;;;;;;;11.80;8.50;;;24.70;1.00;;;;;;5022403;28;20170;-81
2023/09/08 07:45:25;;;;;;;17.00;9.03;;;24.90;1.00;;;;;;5025906;28;20277;-81
2023/09/08 07:47:51;;;;;;;13.97;8.03;;;25.10;1.00;;;;;;5021314;28;20491;-80
2023/09/08 07:50:24;;;;;;;15.83;8.27;;;25.20;1.00;;;;;;5026669;28;20178;-80
2023/09/08 07:52:52;;;;;;;12.10;7.67;;;25.20;1.00;;;;;;5019242;28;20194;-79
2023/09/08 07:55:19;;;;;;;13.60;8.13;;;25.40;1.00;;;;;;5018031;28;20190;-79
2023/09/08 07:57:46;;;;;;;15.37;8.43;;;25.40;1.00;;;;;;5018167;28;20170;-80
2023/09/08 08:00:12;;;;;;;12.73;7.87;;;25.50;1.00;;;;;;5018671;28;20186;-80
2023/09/08 08:02:45;;;;;;;11.50;7.97;;;25.40;1.00;;;;;;5014660;28;20182;-81
2023/09/08 08:05:11;;;;;;;13.80;7.80;;;25.40;1.00;;;;;;5015810;28;20198;-79
2023/09/08 08:07:38;;;;;;;12.23;8.20;;;25.30;1.00;;;;;;5014755;28;20265;-79
2023/09/08 08:10:05;;;;;;;13.93;8.03;;;25.30;1.00;;;;;;5016584;28;20172;-80
2023/09/08 08:12:32;;;;;;;12.17;7.33;;;25.50;1.00;;;;;;5018655;28;20217;-81
2023/09/08 08:14:58;;;;;;;13.07;8.43;;;25.60;1.00;;;;;;5015102;28;20171;-80
2023/09/08 08:17:26;;;;;;;16.37;7.83;;;25.60;1.00;;;;;;5017620;28;20268;-82
2023/09/08 08:19:52;;;;;;;12.37;7.67;;;25.70;1.00;;;;;;5013472;28;20177;-80
2023/09/08 08:22:18;;;;;;;13.43;8.25;;;25.90;1.00;;;;;;5016426;28;20169;-81
2023/09/08 08:24:44;;;;;;;14.97;8.10;;;25.90;1.00;;;;;;5015877;28;20526;-81
2023/09/08 08:27:10;;;;;;;13.73;7.68;;;25.90;1.00;;;;;;5016694;28;20208;-80
2023/09/08 08:29:39;;;;;;;19.90;7.53;;;26.10;1.00;;;;;;5015563;28;20176;-79
2023/09/08 08:32:04;;;;;;;9.73;7.82;;;26.20;1.00;;;;;;5016649;28;20174;-81
2023/09/08 08:34:30;;;;;;;11.07;7.67;;;26.20;1.00;;;;;;5017839;28;20170;-80
2023/09/08 08:36:56;;;;;;;12.45;8.20;;;26.30;1.00;;;;;;5018731;28;20215;-81
2023/09/08 08:39:23;;;;;;;14.90;8.13;;;26.50;99.90;;;;;;5021602;28;20256;-80
2023/09/08 08:41:49;;;;;;;16.13;8.67;;;26.70;99.90;;;;;;5020978;28;20154;-80
2023/09/08 08:44:17;;;;;;;14.45;8.77;;;26.60;99.90;;;;;;5020615;28;20173;-81
2023/09/08 08:46:44;;;;;;;14.73;8.20;;;26.60;99.90;;;;;;5018163;28;20202;-81
2023/09/08 08:49:12;;;;;;;12.15;7.93;;;26.70;99.90;;;;;;5020284;28;20224;-79
2023/09/08 08:51:39;;;;;;;16.98;8.07;;;26.70;99.90;;;;;;5017601;28;20166;-81
2023/09/08 08:54:06;;;;;;;13.45;8.05;;;26.70;99.90;;;;;;5017797;28;20170;-81
2023/09/08 08:56:32;;;;;;;13.13;7.45;;;26.80;99.90;;;;;;5019845;28;20201;-81
2023/09/08 08:58:58;;;;;;;10.85;8.02;;;26.90;99.90;;;;;;5018368;28;20188;-80
2023/09/08 09:01:26;;;;;;;15.00;8.20;;;27.20;99.90;;;;;;5017800;28;20190;-82
2023/09/08 09:03:52;;;;;;;13.15;7.05;;;27.20;99.90;;;;;;5022359;28;20227;-80
2023/09/08 09:06:19;;;;;;;11.52;7.03;;;27.20;99.90;;;;;;5022674;28;20210;-80
2023/09/08 09:08:46;;;;;;;10.05;7.40;;;27.40;99.90;;;;;;5023237;28;20223;-80
2023/09/08 09:11:13;;;;;;;11.43;8.20;;;27.60;99.90;;;;;;5024411;28;20166;-80
2023/09/08 09:13:40;;;;;;;11.82;7.43;;;27.60;99.90;;;;;;5019757;28;20170;-80
2023/09/08 09:16:10;;;;;;;14.50;7.72;;;27.60;99.90;;;;;;5019458;28;20186;-80
2023/09/08 09:19:00;;;;;;;12.20;8.23;;;27.60;99.90;;;;;;5021646;28;20179;-80
2023/09/08 09:21:47;;;;;;;11.38;7.25;;;27.70;99.90;;;;;;5022514;28;20278;-82
2023/09/08 09:24:33;;;;;;;13.60;7.22;;;27.80;99.90;;;;;;5021548;28;20177;-82
2023/09/08 09:27:00;;;;;;;12.55;7.57;;;27.70;99.90;;;;;;5015402;28;20218;-80
2023/09/08 09:29:28;;;;;;;11.10;7.38;;;27.80;99.90;;;;;;5018510;28;20167;-81
2023/09/08 09:32:05;;;;;;;13.18;7.03;;;27.90;99.90;;;;;;5020302;28;20650;-82
2023/09/08 09:34:32;;;;;;;11.75;7.07;;;28.20;99.90;;;;;;5020922;28;20170;-83
2023/09/08 09:36:58;;;;;;;11.68;7.35;;;28.30;99.90;;;;;;5019797;28;20188;-81
2023/09/08 09:39:25;;;;;;;10.25;6.68;;;28.50;99.90;;;;;;5021006;28;20630;-81
2023/09/08 09:41:58;;;;;;;8.57;6.40;;;28.50;99.90;;;;;;5017960;28;20200;-83
2023/09/08 09:44:25;;;;;;;9.52;6.95;;;28.60;99.90;;;;;;5019217;28;20177;-82
2023/09/08 09:46:54;;;;;;;10.25;6.55;;;28.50;99.90;;;;;;5018949;28;20202;-81
2023/09/08 09:49:20;;;;;;;11.68;6.32;;;28.70;99.90;;;;;;5005005;28;20193;-83
2023/09/08 09:51:50;;;;;;;7.07;5.93;;;28.70;59.80;;;;;;5027995;28;20174;-82
2023/09/08 09:54:17;;;;;;;11.18;6.10;;;28.70;46.10;;;;;;5027492;28;20182;-82
2023/09/08 09:56:43;;;;;;;8.75;6.10;;;28.90;1.00;;;;;;5027975;28;20192;-82
2023/09/08 09:59:12;;;;;;;10.10;5.90;;;28.90;1.00;;;;;;5022382;28;20162;-83
2023/09/08 10:01:39;;;;;;;10.57;6.38;;;29.00;1.00;;;;;;5022034;28;20273;-84
2023/09/08 10:04:06;;;;;;;9.45;6.20;;;29.00;1.00;;;;;;5022576;28;20171;-81
2023/09/08 10:06:35;;;;;;;8.73;6.13;;;29.20;1.00;;;;;;5019925;28;20210;-82
2023/09/08 10:09:05;;;;;;;11.82;6.70;;;29.30;1.00;;;;;;5017753;28;20634;-81
2023/09/08 10:11:38;;;;;;;11.45;6.38;;;29.50;1.00;;;;;;5018877;28;20185;-82
2023/09/08 10:14:07;;;;;;;11.68;6.00;;;29.70;1.00;;;;;;5018506;28;20249;-81
2023/09/08 10:16:36;;;;;;;10.07;5.85;;;29.80;1.00;;;;;;5027440;28;20181;-81
2023/09/08 10:19:09;;;;;;;10.77;6.50;;;30.00;1.00;;;;;;5017902;28;20178;-80
2023/09/08 10:21:46;;;;;;;10.60;6.13;;;30.10;99.90;;;;;;5016704;28;20293;-81
2023/09/08 10:24:33;;;;;;;11.40;6.25;;;30.20;99.90;;;;;;5018987;28;20170;-81
2023/09/08 10:27:12;;;;;;;10.95;5.90;;;30.40;99.90;;;;;;5021007;28;20213;-80
2023/09/08 10:29:38;;;;;;;10.73;6.18;;;30.60;99.90;;;;;;5016347;28;20556;-81
2023/09/08 10:32:08;;;;;;;8.48;4.90;;;30.60;1.00;;;;;;5018126;28;20170;-81
2023/09/08 10:34:35;;;;;;;9.50;5.30;;;30.70;99.90;;;;;;5017970;28;20166;-80
2023/09/08 10:37:17;;;;;;;8.15;4.70;;;30.70;83.40;;;;;;5018363;28;20174;-82
2023/09/08 10:39:44;;;;;;;6.85;4.25;;;30.70;99.90;;;;;;5018974;28;20169;-82
2023/09/08 10:42:25;;;;;;;7.68;4.88;;;30.70;99.90;;;;;;5017984;28;20181;-82
2023/09/08 10:44:57;;;;;;;9.18;5.18;;;30.80;99.90;;;;;;5023449;28;20540;-81
2023/09/08 10:47:34;;;;;;;8.50;4.50;;;30.80;1.00;;;;;;5023010;28;20182;-82
2023/09/08 10:50:00;;;;;;;6.60;3.80;;;30.70;1.00;;;;;;5019864;28;20174;-82
2023/09/08 10:52:26;;;;;;;10.10;5.28;;;30.80;1.00;;;;;;5023119;28;20174;-81
2023/09/08 10:54:54;;;;;;;9.05;3.85;;;30.70;99.90;;;;;;5023895;28;20178;-83
2023/09/08 10:57:22;;;;;;;4.90;4.20;;;30.60;1.00;;;;;;5019900;28;20174;-83
2023/09/08 10:59:56;;;;;;;7.07;4.25;;;30.90;99.90;;;;;;5029364;28;20228;-84
2023/09/08 11:02:41;;;;;;;9.60;4.80;;;31.00;99.90;;;;;;5017634;28;20174;-83
2023/09/08 11:05:13;;;;;;;8.52;4.63;;;31.00;99.90;;;;;;5016785;28;20646;-82
2023/09/08 11:07:41;;;;;;;7.05;4.18;;;31.00;99.90;;;;;;5018996;28;20250;-83
2023/09/08 11:10:07;;;;;;;7.30;4.32;;;31.20;99.90;;;;;;5018817;28;20201;-82
2023/09/08 11:12:33;;;;;;;7.38;4.13;;;31.20;1.00;;;;;;5016802;28;20189;-82
2023/09/08 11:15:03;;;;;;;5.93;4.10;;;31.30;1.00;;;;;;5018543;28;20261;-82
2023/09/08 11:17:30;;;;;;;6.32;3.92;;;31.20;1.00;;;;;;5019239;28;20657;-82
2023/09/08 11:19:56;;;;;;;10.43;4.35;;;31.30;99.90;;;;;;5016835;28;20672;-83
2023/09/08 11:22:26;;;;;;;11.55;4.97;;;31.30;99.90;;;;;;5014251;28;20178;-81
2023/09/08 11:24:56;;;;;;;9.40;4.82;;;31.40;99.90;;;;;;5015146;28;20169;-80
2023/09/08 11:27:23;;;;;;;6.00;4.38;;;31.60;99.90;;;;;;5014926;28;20188;-81
2023/09/08 11:29:50;;;;;;;6.15;4.18;;;31.40;99.90;;;;;;5016595;28;20170;-80
2023/09/08 11:32:15;;;;;;;8.23;4.53;;;31.50;1.00;;;;;;5010698;28;20194;-80
2023/09/08 11:34:41;;;;;;;11.20;4.50;;;31.60;99.90;;;;;;5015695;28;20185;-81
2023/09/08 11:37:18;;;;;;;9.07;5.05;;;31.50;1.00;;;;;;5024141;28;20206;-81
2023/09/08 11:39:45;;;;;;;7.28;5.22;;;31.20;99.90;;;;;;5015818;28;20201;-82
2023/09/08 11:42:15;;;;;;;8.80;4.35;;;31.20;99.90;;;;;;5015664;28;20178;-82
2023/09/08 11:44:42;;;;;;;9.02;4.28;;;31.40;99.90;;;;;;5017992;28;20166;-83
2023/09/08 11:47:10;;;;;;;9.15;4.35;;;31.40;1.00;;;;;;5015700;28;20280;-82
2023/09/08 11:49:44;;;;;;;7.57;4.63;;;31.50;99.90;;;;;;4998815;28;20552;-83
2023/09/08 11:52:10;;;;;;;14.30;5.30;;;31.60;55.70;;;;;;5015658;28;20692;-82
2023/09/08 11:54:38;;;;;;;6.05;3.55;;;31.40;1.00;;;;;;5015795;28;20174;-82
2023/09/08 11:57:07;;;;;;;9.57;4.30;;;31.60;99.90;;;;;;5015334;28;20690;-82
2023/09/08 11:59:34;;;;;;;7.65;4.20;;;31.70;99.90;;;;;;5015729;28;20639;-81
2023/09/08 12:02:00;;;;;;;7.13;4.15;;;31.60;99.90;;;;;;5014736;28;20175;-83
2023/09/08 12:04:27;;;;;;;6.30;3.60;;;31.50;1.00;;;;;;5019554;28;20228;-81
2023/09/08 12:06:55;;;;;;;4.68;4.10;;;31.40;1.00;;;;;;5015891;28;20241;-81
2023/09/08 12:09:21;;;;;;;6.95;4.03;;;31.40;99.90;;;;;;5019743;28;20630;-82
2023/09/08 12:11:47;;;;;;;8.80;4.57;;;31.50;99.90;;;;;;5018460;28;20228;-81
2023/09/08 12:14:14;;;;;;;6.30;5.53;;;31.50;1.00;;;;;;5016218;28;20175;-81
2023/09/08 12:16:41;;;;;;;7.18;4.90;;;31.60;1.00;;;;;;5019308;28;20534;-80
2023/09/08 12:19:08;;;;;;;6.90;3.70;;;31.70;1.00;;;;;;5018869;28;20265;-82
2023/09/08 12:21:59;;;;;;;7.82;4.22;;;31.80;1.00;;;;;;5018709;28;20182;-81
2023/09/08 12:24:49;;;;;;;9.02;4.60;;;31.60;1.00;;;;;;4997254;28;20222;-80
2023/09/08 12:27:16;;;;;;;13.75;6.72;;;31.60;1.00;;;;;;4998466;28;20671;-82
2023/09/08 12:29:55;;;;;;;9.73;6.50;;;31.60;99.90;;;;;;4998594;28;20175;-80
2023/09/08 12:32:23;;;;;;;10.48;4.00;;;31.60;99.90;;;;;;5016992;28;20170;-79
2023/09/08 12:34:48;;;;;;;7.43;4.65;;;31.70;99.90;;;;;;5018477;28;20654;-81
2023/09/08 12:37:20;;;;;;;10.40;7.00;;;31.40;1.00;;;;;;5017866;28;20184;-80
2023/09/08 12:39:46;;;;;;;7.65;4.80;;;31.30;99.90;;;;;;5020930;28;20170;-81
2023/09/08 12:42:12;;;;;;;8.45;4.75;;;31.30;71.00;;;;;;5022176;28;20189;-80
2023/09/08 12:44:38;;;;;;;9.68;4.70;;;31.30;99.90;;;;;;5023607;28;20174;-80
2023/09/08 12:47:04;;;;;;;8.55;4.45;;;31.40;99.90;;;;;;5021277;28;20681;-80
2023/09/08 12:49:29;;;;;;;8.50;6.15;;;31.60;99.90;;;;;;5024775;28;20182;-81